createdAt,value
2018-12-05T09:41:39.559Z,1018.28
2018-12-05T09:42:39.739Z,1018.24
2018-12-05T09:43:39.501Z,1018.20
2018-12-05T09:44:39.480Z,1018.16
2018-12-05T09:45:39.500Z,1018.18
2018-12-05T09:46:39.465Z,1018.21
2018-12-05T09:47:39.445Z,1018.19
2018-12-05T09:48:39.433Z,1018.17
2018-12-05T09:49:39.443Z,1018.15
2018-12-05T09:50:39.452Z,1018.14
2018-12-05T09:51:39.432Z,1018.09
2018-12-05T09:52:39.395Z,1018.08
2018-12-05T09:53:39.379Z,1018.07
2018-12-05T09:54:39.364Z,1018.13
2018-12-05T09:55:39.365Z,1018.09
2018-12-05T09:56:39.412Z,1018.09
2018-12-05T09:57:39.332Z,1018.05
2018-12-05T09:58:39.321Z,1018.07
2018-12-05T09:59:39.308Z,1018.03
2018-12-05T10:00:39.333Z,1018.06
2018-12-05T10:01:39.311Z,1018.04
2018-12-05T10:02:39.305Z,1018.00
2018-12-05T10:03:39.263Z,1018.04
2018-12-05T10:04:39.267Z,1018.00
2018-12-05T10:05:39.312Z,1017.99
2018-12-05T10:06:39.268Z,1017.92
2018-12-05T10:07:39.224Z,1017.87
2018-12-05T10:08:39.216Z,1017.83
2018-12-05T10:09:39.201Z,1017.78
2018-12-05T10:10:39.346Z,1017.80
2018-12-05T10:11:39.192Z,1017.76
2018-12-05T10:12:39.171Z,1017.82
2018-12-05T10:13:39.161Z,1017.80
2018-12-05T10:14:39.143Z,1017.76
2018-12-05T10:15:39.169Z,1017.74
2018-12-05T10:16:39.125Z,1017.75
2018-12-05T10:17:39.136Z,1017.74
2018-12-05T10:18:39.104Z,1017.72
2018-12-05T10:19:39.093Z,1017.69
2018-12-05T10:20:39.091Z,1017.72
2018-12-05T10:21:39.093Z,1017.69
2018-12-05T10:22:39.057Z,1017.61
2018-12-05T10:23:39.085Z,1017.64
2018-12-05T10:24:39.035Z,1017.64
2018-12-05T10:25:39.023Z,1017.67
2018-12-05T10:26:39.036Z,1017.65
2018-12-05T10:27:38.997Z,1017.64
2018-12-05T10:28:38.991Z,1017.66
2018-12-05T10:29:38.977Z,1017.62
2018-12-05T10:30:39.043Z,1017.63
2018-12-05T10:31:44.022Z,1017.58
2018-12-05T10:32:40.009Z,1017.59
2018-12-05T10:33:38.935Z,1017.56
2018-12-05T10:34:38.947Z,1017.54
2018-12-05T10:35:38.918Z,1017.54
2018-12-05T10:36:38.928Z,1017.52
2018-12-05T10:37:38.893Z,1017.51
2018-12-05T10:38:38.882Z,1017.49
2018-12-05T10:39:38.868Z,1017.47
2018-12-05T10:40:38.883Z,1017.48
2018-12-05T10:41:38.856Z,1017.44
2018-12-05T10:42:38.840Z,1017.40
2018-12-05T10:43:38.829Z,1017.38
2018-12-05T10:44:38.810Z,1017.40
2018-12-05T10:45:38.833Z,1017.33
2018-12-05T10:46:38.787Z,1017.27
2018-12-05T10:47:38.779Z,1017.27
2018-12-05T10:48:38.765Z,1017.27
2018-12-05T10:49:38.758Z,1017.23
2018-12-05T10:50:38.747Z,1017.22
2018-12-05T10:51:38.765Z,1017.21
2018-12-05T10:52:38.725Z,1017.21
2018-12-05T10:53:38.717Z,1017.20
2018-12-05T10:54:38.700Z,1017.14
2018-12-05T10:55:38.693Z,1017.12
2018-12-05T10:56:38.708Z,1017.09
2018-12-05T10:57:38.681Z,1017.09
2018-12-05T10:58:38.662Z,1017.07
2018-12-05T10:59:38.660Z,1017.07
2018-12-05T11:00:38.640Z,1017.06
2018-12-05T11:01:38.715Z,1017.06
2018-12-05T11:02:38.640Z,1017.04
2018-12-05T11:03:38.605Z,1016.98
2018-12-05T11:04:38.594Z,1017.01
2018-12-05T11:05:38.590Z,1016.98
2018-12-05T11:06:38.570Z,1016.95
2018-12-05T11:07:38.597Z,1016.99
2018-12-05T11:08:38.556Z,1017.00
2018-12-05T11:09:38.543Z,1017.00
2018-12-05T11:10:38.524Z,1016.92
2018-12-05T11:11:38.518Z,1016.95
2018-12-05T11:12:38.553Z,1016.89
2018-12-05T11:13:38.493Z,1016.91
2018-12-05T11:14:38.478Z,1016.88
2018-12-05T11:15:38.473Z,1016.84
2018-12-05T11:16:38.481Z,1016.87
2018-12-05T11:17:38.473Z,1016.83
2018-12-05T11:18:38.438Z,1016.80
2018-12-05T11:19:38.422Z,1016.77
2018-12-05T11:20:38.412Z,1016.73
2018-12-05T11:21:38.411Z,1016.71
2018-12-05T11:22:38.393Z,1016.66
2018-12-05T11:23:38.421Z,1016.68
2018-12-05T11:24:38.376Z,1016.70
2018-12-05T11:25:38.359Z,1016.68
2018-12-05T11:26:38.351Z,1016.65
2018-12-05T11:27:38.339Z,1016.63
2018-12-05T11:28:38.363Z,1016.65
2018-12-05T11:29:38.318Z,1016.62
2018-12-05T11:30:38.306Z,1016.55
2018-12-05T11:31:38.299Z,1016.60
2018-12-05T11:32:38.284Z,1016.55
2018-12-05T11:33:38.313Z,1016.52
2018-12-05T11:34:38.261Z,1016.52
2018-12-05T11:35:38.251Z,1016.55
2018-12-05T11:36:38.238Z,1016.55
2018-12-05T11:37:38.233Z,1016.52
2018-12-05T11:38:38.217Z,1016.49
2018-12-05T11:39:38.233Z,1016.48
2018-12-05T11:40:38.197Z,1016.51
2018-12-05T11:41:38.183Z,1016.43
2018-12-05T11:42:38.179Z,1016.41
2018-12-05T11:43:38.158Z,1016.38
2018-12-05T11:44:38.232Z,1016.38
2018-12-05T11:45:38.153Z,1016.33
2018-12-05T11:46:38.127Z,1016.33
2018-12-05T11:47:38.119Z,1016.28
2018-12-05T11:48:38.164Z,1016.25
2018-12-05T11:49:38.096Z,1016.23
2018-12-05T11:50:38.085Z,1016.23
2018-12-05T11:51:38.078Z,1016.23
2018-12-05T11:52:38.061Z,1016.21
2018-12-05T11:53:38.054Z,1016.18
2018-12-05T11:54:38.070Z,1016.18
2018-12-05T11:55:38.037Z,1016.15
2018-12-05T11:56:38.016Z,1016.19
2018-12-05T11:57:38.014Z,1016.18
2018-12-05T11:58:38.000Z,1016.14
2018-12-05T11:59:38.020Z,1016.13
2018-12-05T12:00:38.004Z,1016.09
2018-12-05T12:01:37.968Z,1016.08
2018-12-05T12:02:37.958Z,1016.05
2018-12-05T12:03:37.948Z,1016.07
2018-12-05T12:04:37.940Z,1016.05
2018-12-05T12:05:37.944Z,1016.03
2018-12-05T12:06:37.911Z,1016.01
2018-12-05T12:07:37.901Z,1016.01
2018-12-05T12:08:37.891Z,1015.99
2018-12-05T12:09:37.886Z,1015.98
2018-12-05T12:10:37.902Z,1015.97
2018-12-05T12:11:37.859Z,1016.00
2018-12-05T12:12:37.843Z,1015.96
2018-12-05T12:13:37.836Z,1015.95
2018-12-05T12:14:37.825Z,1015.95
2018-12-05T12:15:37.905Z,1015.92
2018-12-05T12:16:37.805Z,1015.88
2018-12-05T12:17:37.789Z,1015.88
2018-12-05T12:18:37.781Z,1015.89
2018-12-05T12:19:37.810Z,1015.87
2018-12-05T12:20:37.799Z,1015.80
2018-12-05T12:21:37.763Z,1015.81
2018-12-05T12:22:37.781Z,1015.81
2018-12-05T12:23:37.724Z,1015.79
2018-12-05T12:24:37.721Z,1015.77
2018-12-05T12:25:37.729Z,1015.72
2018-12-05T12:26:37.710Z,1015.68
2018-12-05T12:27:37.683Z,1015.74
2018-12-05T12:28:37.670Z,1015.73
2018-12-05T12:29:37.662Z,1015.70
2018-12-05T12:30:37.690Z,1015.68
2018-12-05T12:31:37.658Z,1015.67
2018-12-05T12:32:37.639Z,1015.64
2018-12-05T12:33:37.620Z,1015.64
2018-12-05T12:34:37.607Z,1015.59
2018-12-05T12:35:37.628Z,1015.59
2018-12-05T12:36:37.632Z,1015.63
2018-12-05T12:37:37.575Z,1015.59
2018-12-05T12:38:37.565Z,1015.59
2018-12-05T12:39:37.614Z,1015.58
2018-12-05T12:40:37.543Z,1015.62
2018-12-05T12:41:37.562Z,1015.54
2018-12-05T12:42:37.520Z,1015.57
2018-12-05T12:43:37.506Z,1015.54
2018-12-05T12:44:37.502Z,1015.60
2018-12-05T12:45:37.491Z,1015.65
2018-12-05T12:46:37.498Z,1015.63
2018-12-05T12:47:37.466Z,1015.57
2018-12-05T12:48:37.456Z,1015.53
2018-12-05T12:49:37.446Z,1015.50
2018-12-05T12:50:37.440Z,1015.53
2018-12-05T12:51:37.572Z,1015.50
2018-12-05T12:52:37.453Z,1015.49
2018-12-05T12:53:37.406Z,1015.47
2018-12-05T12:54:37.397Z,1015.48
2018-12-05T12:55:37.384Z,1015.42
2018-12-05T12:56:37.382Z,1015.41
2018-12-05T12:57:37.475Z,1015.39
2018-12-05T12:58:37.355Z,1015.36
2018-12-05T12:59:37.349Z,1015.34
2018-12-05T13:00:37.325Z,1015.32
2018-12-05T13:01:37.371Z,1015.28
2018-12-05T13:02:37.314Z,1015.26
2018-12-05T13:03:37.359Z,1015.24
2018-12-05T13:04:37.299Z,1015.23
2018-12-05T13:05:37.273Z,1015.27
2018-12-05T13:06:37.273Z,1015.26
2018-12-05T13:07:37.290Z,1015.30
2018-12-05T13:08:37.278Z,1015.25
2018-12-05T13:09:37.233Z,1015.30
2018-12-05T13:10:37.219Z,1015.28
2018-12-05T13:11:37.211Z,1015.27
2018-12-05T13:12:37.230Z,1015.28
2018-12-05T13:13:37.196Z,1015.30
2018-12-05T13:14:37.174Z,1015.28
2018-12-05T13:15:37.165Z,1015.31
2018-12-05T13:16:37.157Z,1015.31
2018-12-05T13:17:37.177Z,1015.27
2018-12-05T13:18:37.131Z,1015.21
2018-12-05T13:19:37.147Z,1015.15
2018-12-05T13:20:37.113Z,1015.14
2018-12-05T13:21:37.109Z,1015.12
2018-12-05T13:22:37.129Z,1015.09
2018-12-05T13:23:37.076Z,1015.09
2018-12-05T13:24:37.069Z,1015.10
2018-12-05T13:25:37.075Z,1015.07
2018-12-05T13:26:37.043Z,1015.08
2018-12-05T13:27:37.068Z,1015.11
2018-12-05T13:28:37.050Z,1015.07
2018-12-05T13:29:37.013Z,1015.09
2018-12-05T13:30:37.006Z,1015.07
2018-12-05T13:31:36.993Z,1015.05
2018-12-05T13:32:36.982Z,1015.02
2018-12-05T13:33:37.017Z,1015.01
2018-12-05T13:34:36.957Z,1014.96
2018-12-05T13:35:36.944Z,1014.94
2018-12-05T13:36:36.938Z,1014.95
2018-12-05T13:37:36.930Z,1014.92
2018-12-05T13:38:36.954Z,1014.94
2018-12-05T13:39:36.906Z,1014.92
2018-12-05T13:40:36.908Z,1014.88
2018-12-05T13:41:36.906Z,1014.82
2018-12-05T13:42:36.877Z,1014.78
2018-12-05T13:43:36.861Z,1014.79
2018-12-05T13:44:36.889Z,1014.77
2018-12-05T13:45:36.834Z,1014.72
2018-12-05T13:46:36.824Z,1014.76
2018-12-05T13:47:36.822Z,1014.81
2018-12-05T13:48:36.810Z,1014.76
2018-12-05T13:49:36.818Z,1014.77
2018-12-05T13:50:36.782Z,1014.79
2018-12-05T13:51:36.769Z,1014.72
2018-12-05T13:52:36.759Z,1014.67
2018-12-05T13:53:36.756Z,1014.61
2018-12-05T13:54:36.774Z,1014.62
2018-12-05T13:55:36.738Z,1014.62
2018-12-05T13:56:36.721Z,1014.59
2018-12-05T13:57:36.710Z,1014.58
2018-12-05T13:58:36.699Z,1014.57
2018-12-05T13:59:36.718Z,1014.54
2018-12-05T14:00:36.679Z,1014.52
2018-12-05T14:01:36.666Z,1014.51
2018-12-05T14:02:36.653Z,1014.47
2018-12-05T14:03:36.642Z,1014.41
2018-12-05T14:04:36.673Z,1014.40
2018-12-05T14:05:36.678Z,1014.37
2018-12-05T14:06:36.613Z,1014.32
2018-12-05T14:07:36.601Z,1014.35
2018-12-05T14:08:36.588Z,1014.30
2018-12-05T14:09:36.582Z,1014.32
2018-12-05T14:10:36.594Z,1014.31
2018-12-05T14:11:36.557Z,1014.32
2018-12-05T14:12:36.548Z,1014.33
2018-12-05T14:13:36.540Z,1014.32
2018-12-05T14:14:36.526Z,1014.28
2018-12-05T14:15:36.549Z,1014.27
2018-12-05T14:16:36.502Z,1014.31
2018-12-05T14:17:36.500Z,1014.25
2018-12-05T14:18:36.504Z,1014.26
2018-12-05T14:19:36.477Z,1014.23
2018-12-05T14:20:36.490Z,1014.20
2018-12-05T14:21:36.449Z,1014.18
2018-12-05T14:22:36.438Z,1014.18
2018-12-05T14:23:36.427Z,1014.13
2018-12-05T14:24:36.435Z,1014.13
2018-12-05T14:25:36.438Z,1014.13
2018-12-05T14:26:36.399Z,1014.14
2018-12-05T14:27:36.389Z,1014.14
2018-12-05T14:28:36.386Z,1014.12
2018-12-05T14:29:36.372Z,1014.07
2018-12-05T14:30:36.378Z,1014.10
2018-12-05T14:31:36.345Z,1014.06
2018-12-05T14:32:36.344Z,1014.01
2018-12-05T14:33:36.333Z,1014.04
2018-12-05T14:34:36.313Z,1013.97
2018-12-05T14:35:36.356Z,1013.93
2018-12-05T14:36:36.307Z,1013.94
2018-12-05T14:37:36.283Z,1013.90
2018-12-05T14:38:36.545Z,1013.90
2018-12-05T14:39:36.280Z,1013.87
2018-12-05T14:40:36.253Z,1013.88
2018-12-05T14:41:36.291Z,1013.86
2018-12-05T14:42:36.243Z,1013.83
2018-12-05T14:43:36.216Z,1013.84
2018-12-05T14:44:36.260Z,1013.85
2018-12-05T14:45:36.218Z,1013.88
2018-12-05T14:46:36.298Z,1013.85
2018-12-05T14:47:36.269Z,1013.86
2018-12-05T14:48:36.189Z,1013.86
2018-12-05T14:49:36.154Z,1013.80
2018-12-05T14:50:36.180Z,1013.82
2018-12-05T14:51:36.154Z,1013.80
2018-12-05T14:52:36.152Z,1013.80
2018-12-05T14:53:36.117Z,1013.73
2018-12-05T14:54:36.104Z,1013.73
2018-12-05T14:55:36.083Z,1013.65
2018-12-05T14:56:36.253Z,1013.62
2018-12-05T14:57:36.085Z,1013.64
2018-12-05T14:58:36.205Z,1013.63
2018-12-05T14:59:36.089Z,1013.62
2018-12-05T15:00:36.064Z,1013.57
2018-12-05T15:01:36.078Z,1013.58
2018-12-05T15:02:36.044Z,1013.58
2018-12-05T15:03:36.089Z,1013.57
2018-12-05T15:04:36.208Z,1013.58
2018-12-05T15:05:35.986Z,1013.57
2018-12-05T15:06:36.013Z,1013.55
2018-12-05T15:07:35.959Z,1013.55
2018-12-05T15:08:35.944Z,1013.52
2018-12-05T15:09:35.929Z,1013.53
2018-12-05T15:10:35.932Z,1013.55
2018-12-05T15:11:35.921Z,1013.50
2018-12-05T15:12:35.933Z,1013.50
2018-12-05T15:13:35.903Z,1013.47
2018-12-05T15:14:35.881Z,1013.47
2018-12-05T15:15:35.868Z,1013.43
2018-12-05T15:16:35.854Z,1013.43
2018-12-05T15:17:35.867Z,1013.41
2018-12-05T15:18:35.883Z,1013.38
2018-12-05T15:19:35.823Z,1013.37
2018-12-05T15:20:35.810Z,1013.35
2018-12-05T15:21:35.805Z,1013.29
2018-12-05T15:22:35.820Z,1013.33
2018-12-05T15:23:35.789Z,1013.32
2018-12-05T15:24:35.769Z,1013.32
2018-12-05T15:25:35.755Z,1013.29
2018-12-05T15:26:35.743Z,1013.33
2018-12-05T15:27:35.762Z,1013.31
2018-12-05T15:28:35.725Z,1013.31
2018-12-05T15:29:35.785Z,1013.27
2018-12-05T15:30:35.863Z,1013.23
2018-12-05T15:31:35.700Z,1013.24
2018-12-05T15:32:35.699Z,1013.20
2018-12-05T15:33:35.678Z,1013.16
2018-12-05T15:34:35.663Z,1013.14
2018-12-05T15:35:35.644Z,1013.15
2018-12-05T15:36:35.641Z,1013.14
2018-12-05T15:37:35.655Z,1013.07
2018-12-05T15:38:35.624Z,1013.08
2018-12-05T15:39:35.604Z,1013.09
2018-12-05T15:40:35.621Z,1013.05
2018-12-05T15:41:35.584Z,1013.00
2018-12-05T15:42:35.841Z,1013.01
2018-12-05T15:43:35.595Z,1013.02
2018-12-05T15:44:35.545Z,1013.08
2018-12-05T15:45:35.539Z,1013.02
2018-12-05T15:46:35.551Z,1013.00
2018-12-05T15:47:35.522Z,1013.00
2018-12-05T15:48:35.527Z,1012.97
2018-12-05T15:49:35.494Z,1012.95
2018-12-05T15:50:35.497Z,1012.98
2018-12-05T15:51:35.476Z,1012.95
2018-12-05T15:52:35.485Z,1012.91
2018-12-05T15:53:35.484Z,1012.85
2018-12-05T15:54:35.441Z,1012.81
2018-12-05T15:55:35.435Z,1012.79
2018-12-05T15:56:35.425Z,1012.77
2018-12-05T15:57:35.414Z,1012.71
2018-12-05T15:58:35.534Z,1012.70
2018-12-05T15:59:35.413Z,1012.70
2018-12-05T16:00:35.372Z,1012.69
2018-12-05T16:01:35.362Z,1012.65
2018-12-05T16:02:35.357Z,1012.68
2018-12-05T16:03:35.343Z,1012.70
2018-12-05T16:04:35.369Z,1012.65
2018-12-05T16:05:35.324Z,1012.63
2018-12-05T16:06:35.311Z,1012.64
2018-12-05T16:07:35.299Z,1012.66
2018-12-05T16:08:35.287Z,1012.63
2018-12-05T16:09:35.309Z,1012.59
2018-12-05T16:10:35.284Z,1012.58
2018-12-05T16:11:35.254Z,1012.58
2018-12-05T16:12:35.246Z,1012.50
2018-12-05T16:13:35.231Z,1012.46
2018-12-05T16:14:35.350Z,1012.45
2018-12-05T16:15:35.215Z,1012.41
2018-12-05T16:16:35.199Z,1012.43
2018-12-05T16:17:35.192Z,1012.40
2018-12-05T16:18:35.176Z,1012.34
2018-12-05T16:19:35.218Z,1012.28
2018-12-05T16:20:35.182Z,1012.33
2018-12-05T16:21:35.150Z,1012.30
2018-12-05T16:22:35.139Z,1012.35
2018-12-05T16:23:35.137Z,1012.30
2018-12-05T16:24:35.119Z,1012.27
2018-12-05T16:25:35.146Z,1012.26
2018-12-05T16:26:35.109Z,1012.24
2018-12-05T16:27:35.089Z,1012.26
2018-12-05T16:28:35.072Z,1012.24
2018-12-05T16:29:35.057Z,1012.22
2018-12-05T16:30:35.075Z,1012.22
2018-12-05T16:31:35.040Z,1012.19
2018-12-05T16:32:35.027Z,1012.14
2018-12-05T16:33:35.048Z,1012.12
2018-12-05T16:34:35.041Z,1012.10
2018-12-05T16:35:34.995Z,1012.08
2018-12-05T16:36:34.979Z,1012.05
2018-12-05T16:37:34.987Z,1012.04
2018-12-05T16:38:34.958Z,1012.02
2018-12-05T16:39:34.976Z,1012.03
2018-12-05T16:40:34.974Z,1011.98
2018-12-05T16:41:34.928Z,1011.96
2018-12-05T16:42:34.949Z,1011.93
2018-12-05T16:43:34.917Z,1011.94
2018-12-05T16:44:34.900Z,1011.95
2018-12-05T16:45:34.918Z,1011.89
2018-12-05T16:46:34.878Z,1011.87
2018-12-05T16:47:34.863Z,1011.85
2018-12-05T16:48:34.851Z,1011.83
2018-12-05T16:49:34.873Z,1011.82
2018-12-05T16:50:34.857Z,1011.78
2018-12-05T16:51:34.819Z,1011.78
2018-12-05T16:52:34.847Z,1011.78
2018-12-05T16:53:34.800Z,1011.80
2018-12-05T16:54:34.786Z,1011.78
2018-12-05T16:55:34.853Z,1011.79
2018-12-05T16:56:34.793Z,1011.77
2018-12-05T16:57:34.755Z,1011.69
2018-12-05T16:58:34.741Z,1011.65
2018-12-05T16:59:34.729Z,1011.66
2018-12-05T17:00:34.729Z,1011.70
2018-12-05T17:01:34.739Z,1011.61
2018-12-05T17:02:34.697Z,1011.63
2018-12-05T17:03:34.689Z,1011.64
2018-12-05T17:04:34.677Z,1011.60
2018-12-05T17:05:34.689Z,1011.54
2018-12-05T17:06:34.693Z,1011.61
2018-12-05T17:07:34.646Z,1011.56
2018-12-05T17:08:34.639Z,1011.53
2018-12-05T17:09:34.621Z,1011.54
2018-12-05T17:10:34.622Z,1011.54
2018-12-05T17:11:34.604Z,1011.55
2018-12-05T17:12:34.616Z,1011.53
2018-12-05T17:13:34.588Z,1011.47
2018-12-05T17:14:34.599Z,1011.47
2018-12-05T17:15:34.557Z,1011.51
2018-12-05T17:16:34.553Z,1011.50
2018-12-05T17:17:34.607Z,1011.49
2018-12-05T17:18:34.527Z,1011.49
2018-12-05T17:19:34.515Z,1011.48
2018-12-05T17:20:34.513Z,1011.47
2018-12-05T17:21:34.493Z,1011.43
2018-12-05T17:22:34.505Z,1011.37
2018-12-05T17:23:34.572Z,1011.38
2018-12-05T17:24:34.459Z,1011.32
2018-12-05T17:25:34.500Z,1011.31
2018-12-05T17:26:34.439Z,1011.32
2018-12-05T17:27:34.455Z,1011.32
2018-12-05T17:28:34.442Z,1011.28
2018-12-05T17:29:34.406Z,1011.30
2018-12-05T17:30:34.388Z,1011.26
2018-12-05T17:31:34.397Z,1011.30
2018-12-05T17:32:34.399Z,1011.29
2018-12-05T17:33:34.392Z,1011.27
2018-12-05T17:34:34.361Z,1011.26
2018-12-05T17:35:34.344Z,1011.25
2018-12-05T17:36:34.325Z,1011.22
2018-12-05T17:37:34.315Z,1011.22
2018-12-05T17:38:34.495Z,1011.26
2018-12-05T17:39:34.293Z,1011.23
2018-12-05T17:40:34.289Z,1011.21
2018-12-05T17:41:34.275Z,1011.19
2018-12-05T17:42:34.267Z,1011.18
2018-12-05T17:43:34.291Z,1011.16
2018-12-05T17:44:34.238Z,1011.15
2018-12-05T17:45:34.226Z,1011.16
2018-12-05T17:46:34.217Z,1011.18
2018-12-05T17:47:34.208Z,1011.18
2018-12-05T17:48:34.323Z,1011.12
2018-12-05T17:49:34.189Z,1011.02
2018-12-05T17:50:34.174Z,1011.05
2018-12-05T17:51:34.166Z,1010.96
2018-12-05T17:52:34.159Z,1010.99
2018-12-05T17:53:34.170Z,1010.99
2018-12-05T17:54:34.181Z,1010.98
2018-12-05T17:55:34.132Z,1010.95
2018-12-05T17:56:35.083Z,1010.93
2018-12-05T17:57:34.098Z,1010.93
2018-12-05T17:58:34.096Z,1010.87
2018-12-05T17:59:34.116Z,1010.89
2018-12-05T18:00:34.063Z,1010.83
2018-12-05T18:01:34.068Z,1010.83
2018-12-05T18:02:34.039Z,1010.79
2018-12-05T18:03:34.031Z,1010.78
2018-12-05T18:04:34.046Z,1010.80
2018-12-05T18:05:34.044Z,1010.81
2018-12-05T18:06:34.007Z,1010.82
2018-12-05T18:07:33.994Z,1010.84
2018-12-05T18:08:34.008Z,1010.85
2018-12-05T18:09:33.990Z,1010.87
2018-12-05T18:10:33.953Z,1010.87
2018-12-05T18:11:33.939Z,1010.92
2018-12-05T18:12:33.939Z,1010.88
2018-12-05T18:13:33.923Z,1010.84
2018-12-05T18:14:33.933Z,1010.90
2018-12-05T18:15:33.973Z,1010.91
2018-12-05T18:16:33.889Z,1010.94
2018-12-05T18:17:33.883Z,1010.92
2018-12-05T18:18:33.872Z,1010.94
2018-12-05T18:19:33.855Z,1010.91
2018-12-05T18:20:33.919Z,1010.93
2018-12-05T18:21:33.844Z,1010.92
2018-12-05T18:22:33.823Z,1010.93
2018-12-05T18:23:33.824Z,1010.91
2018-12-05T18:24:33.809Z,1010.90
2018-12-05T18:25:33.824Z,1010.88
2018-12-05T18:26:33.777Z,1010.88
2018-12-05T18:27:33.766Z,1010.84
2018-12-05T18:28:33.760Z,1010.80
2018-12-05T18:29:33.795Z,1010.79
2018-12-05T18:30:33.748Z,1010.81
2018-12-05T18:31:33.725Z,1010.77
2018-12-05T18:32:33.715Z,1010.77
2018-12-05T18:33:33.723Z,1010.76
2018-12-05T18:34:33.697Z,1010.71
2018-12-05T18:35:33.706Z,1010.71
2018-12-05T18:36:33.712Z,1010.67
2018-12-05T18:37:33.669Z,1010.62
2018-12-05T18:38:33.647Z,1010.60
2018-12-05T18:39:33.637Z,1010.56
2018-12-05T18:40:33.631Z,1010.53
2018-12-05T18:41:33.629Z,1010.47
2018-12-05T18:42:33.750Z,1010.48
2018-12-05T18:43:33.611Z,1010.46
2018-12-05T18:44:33.586Z,1010.41
2018-12-05T18:45:33.570Z,1010.36
2018-12-05T18:46:33.584Z,1010.38
2018-12-05T18:47:33.548Z,1010.34
2018-12-05T18:48:33.542Z,1010.33
2018-12-05T18:49:33.615Z,1010.31
2018-12-05T18:50:33.598Z,1010.27
2018-12-05T18:51:33.534Z,1010.24
2018-12-05T18:52:33.508Z,1010.24
2018-12-05T18:53:33.491Z,1010.24
2018-12-05T18:54:33.493Z,1010.27
2018-12-05T18:55:33.486Z,1010.20
2018-12-05T18:56:33.492Z,1010.20
2018-12-05T18:57:33.478Z,1010.17
2018-12-05T18:58:33.444Z,1010.18
2018-12-05T18:59:33.445Z,1010.12
2018-12-05T19:00:33.414Z,1010.10
2018-12-05T19:01:33.422Z,1010.05
2018-12-05T19:02:33.390Z,1009.99
2018-12-05T19:03:33.388Z,1010.02
2018-12-05T19:04:33.368Z,1010.01
2018-12-05T19:05:33.358Z,1010.00
2018-12-05T19:06:33.388Z,1009.98
2018-12-05T19:07:33.339Z,1009.97
2018-12-05T19:08:34.406Z,1009.95
2018-12-05T19:09:33.315Z,1009.94
2018-12-05T19:10:33.304Z,1009.93
2018-12-05T19:11:33.327Z,1009.92
2018-12-05T19:12:33.314Z,1009.94
2018-12-05T19:13:33.282Z,1009.95
2018-12-05T19:14:33.262Z,1009.95
2018-12-05T19:15:33.258Z,1009.92
2018-12-05T19:16:33.269Z,1009.90
2018-12-05T19:17:33.243Z,1009.88
2018-12-05T19:18:33.247Z,1009.89
2018-12-05T19:19:33.207Z,1009.86
2018-12-05T19:20:33.194Z,1009.90
2018-12-05T19:21:33.192Z,1009.88
2018-12-05T19:22:33.205Z,1009.83
2018-12-05T19:23:33.204Z,1009.88
2018-12-05T19:24:33.172Z,1009.85
2018-12-05T19:25:33.199Z,1009.82
2018-12-05T19:26:33.138Z,1009.80
2018-12-05T19:27:33.146Z,1009.82
2018-12-05T19:28:33.115Z,1009.77
2018-12-05T19:29:33.124Z,1009.76
2018-12-05T19:30:33.119Z,1009.77
2018-12-05T19:31:33.082Z,1009.76
2018-12-05T19:32:33.327Z,1009.78
2018-12-05T19:33:33.057Z,1009.71
2018-12-05T19:34:33.057Z,1009.73
2018-12-05T19:35:33.060Z,1009.73
2018-12-05T19:36:33.036Z,1009.70
2018-12-05T19:37:33.225Z,1009.73
2018-12-05T19:38:33.002Z,1009.69
2018-12-05T19:39:33.054Z,1009.66
2018-12-05T19:40:32.995Z,1009.65
2018-12-05T19:41:32.974Z,1009.63
2018-12-05T19:42:32.963Z,1009.64
2018-12-05T19:43:32.973Z,1009.64
2018-12-05T19:44:32.938Z,1009.62
2018-12-05T19:45:32.931Z,1009.60
2018-12-05T19:46:32.929Z,1009.62
2018-12-05T19:47:32.959Z,1009.63
2018-12-05T19:48:32.905Z,1009.58
2018-12-05T19:49:32.891Z,1009.60
2018-12-05T19:50:32.886Z,1009.56
2018-12-05T19:51:32.864Z,1009.56
2018-12-05T19:52:32.877Z,1009.55
2018-12-05T19:53:32.922Z,1009.55
2018-12-05T19:54:32.883Z,1009.52
2018-12-05T19:55:32.839Z,1009.57
2018-12-05T19:56:32.820Z,1009.52
2018-12-05T19:57:32.800Z,1009.50
2018-12-05T19:58:32.816Z,1009.48
2018-12-05T19:59:32.812Z,1009.49
2018-12-05T20:00:32.770Z,1009.49
2018-12-05T20:01:32.783Z,1009.49
2018-12-05T20:02:32.758Z,1009.49
2018-12-05T20:03:32.739Z,1009.47
2018-12-05T20:04:32.768Z,1009.45
2018-12-05T20:05:32.725Z,1009.42
2018-12-05T20:06:32.711Z,1009.45
2018-12-05T20:07:32.715Z,1009.43
2018-12-05T20:08:32.695Z,1009.48
2018-12-05T20:09:32.714Z,1009.42
2018-12-05T20:10:32.681Z,1009.40
2018-12-05T20:11:32.661Z,1009.42
2018-12-05T20:12:32.647Z,1009.40
2018-12-05T20:13:32.632Z,1009.36
2018-12-05T20:14:32.675Z,1009.32
2018-12-05T20:15:32.627Z,1009.30
2018-12-05T20:16:32.640Z,1009.32
2018-12-05T20:17:32.593Z,1009.28
2018-12-05T20:18:32.585Z,1009.27
2018-12-05T20:19:32.598Z,1009.25
2018-12-05T20:20:32.606Z,1009.24
2018-12-05T20:21:32.554Z,1009.24
2018-12-05T20:22:33.580Z,1009.23
2018-12-05T20:23:32.531Z,1009.20
2018-12-05T20:24:32.528Z,1009.15
2018-12-05T20:25:32.537Z,1009.20
2018-12-05T20:26:32.502Z,1009.18
2018-12-05T20:27:32.503Z,1009.15
2018-12-05T20:28:32.501Z,1009.13
2018-12-05T20:29:32.508Z,1009.10
2018-12-05T20:30:32.487Z,1009.11
2018-12-05T20:31:32.473Z,1009.09
2018-12-05T20:32:32.445Z,1009.09
2018-12-05T20:33:32.453Z,1009.06
2018-12-05T20:34:32.418Z,1009.05
2018-12-05T20:35:32.593Z,1009.03
2018-12-05T20:36:32.428Z,1009.02
2018-12-05T20:37:32.384Z,1009.01
2018-12-05T20:38:32.382Z,1008.97
2018-12-05T20:39:32.391Z,1008.97
2018-12-05T20:40:32.388Z,1008.96
2018-12-05T20:41:33.465Z,1008.94
2018-12-05T20:42:32.351Z,1008.91
2018-12-05T20:43:32.331Z,1008.85
2018-12-05T20:44:32.311Z,1008.86
2018-12-05T20:45:32.412Z,1008.87
2018-12-05T20:46:32.295Z,1008.83
2018-12-05T20:47:32.337Z,1008.86
2018-12-05T20:48:32.270Z,1008.84
2018-12-05T20:49:32.268Z,1008.81
2018-12-05T20:50:32.286Z,1008.79
2018-12-05T20:51:32.267Z,1008.76
2018-12-05T20:52:32.266Z,1008.75
2018-12-05T20:53:32.220Z,1008.76
2018-12-05T20:54:32.215Z,1008.75
2018-12-05T20:55:32.199Z,1008.75
2018-12-05T20:56:32.230Z,1008.73
2018-12-05T20:57:32.216Z,1008.77
2018-12-05T20:58:32.308Z,1008.75
2018-12-05T20:59:32.156Z,1008.75
2018-12-05T21:00:32.145Z,1008.74
2018-12-05T21:01:32.161Z,1008.74
2018-12-05T21:02:32.135Z,1008.72
2018-12-05T21:03:32.166Z,1008.76
2018-12-05T21:04:32.117Z,1008.77
2018-12-05T21:05:32.099Z,1008.77
2018-12-05T21:06:32.142Z,1008.73
2018-12-05T21:07:32.079Z,1008.71
2018-12-05T21:08:32.076Z,1008.71
2018-12-05T21:09:32.079Z,1008.67
2018-12-05T21:10:32.072Z,1008.66
2018-12-05T21:11:32.039Z,1008.64
2018-12-05T21:12:32.063Z,1008.64
2018-12-05T21:13:32.017Z,1008.62
2018-12-05T21:14:32.008Z,1008.66
2018-12-05T21:15:32.005Z,1008.69
2018-12-05T21:16:31.996Z,1008.63
2018-12-05T21:17:32.031Z,1008.61
2018-12-05T21:18:31.958Z,1008.59
2018-12-05T21:19:31.960Z,1008.57
2018-12-05T21:20:31.949Z,1008.58
2018-12-05T21:21:31.938Z,1008.56
2018-12-05T21:22:31.964Z,1008.51
2018-12-05T21:23:31.916Z,1008.49
2018-12-05T21:24:31.896Z,1008.52
2018-12-05T21:25:31.889Z,1008.62
2018-12-05T21:26:31.889Z,1008.60
2018-12-05T21:27:31.898Z,1008.56
2018-12-05T21:28:31.858Z,1008.55
2018-12-05T21:29:31.864Z,1008.50
2018-12-05T21:30:31.844Z,1008.53
2018-12-05T21:31:31.829Z,1008.57
2018-12-05T21:32:31.847Z,1008.53
2018-12-05T21:33:31.824Z,1008.48
2018-12-05T21:34:31.844Z,1008.50
2018-12-05T21:35:31.794Z,1008.50
2018-12-05T21:36:31.787Z,1008.48
2018-12-05T21:37:31.787Z,1008.49
2018-12-05T21:38:31.783Z,1008.52
2018-12-05T21:39:31.746Z,1008.50
2018-12-05T21:40:31.741Z,1008.56
2018-12-05T21:41:31.731Z,1008.51
2018-12-05T21:42:31.720Z,1008.55
2018-12-05T21:43:31.750Z,1008.54
2018-12-05T21:44:31.697Z,1008.51
2018-12-05T21:45:31.690Z,1008.53
2018-12-05T21:46:31.681Z,1008.50